Time;durP1;ratioP1;P1;durP2;ratioP2;P2;SDS_P1;SDS_P2;PMS_P1;PMS_P2;Temp;Humidity;BMP_temperature;BMP_pressure;BME280_temperature;BME280_humidity;BME280_pressure;Samples;Min_cycle;Max_cycle;Signal;HPM_P1;HPM_P2
2023/12/14 00:01:29;;;;;;;92.73;49.93;;;;;;;5.02;100.00;98772.53;5072094;28;20199;-75
2023/12/14 00:03:55;;;;;;;91.87;48.53;;;;;;;4.90;100.00;98759.00;5072588;28;20196;-75
2023/12/14 00:06:22;;;;;;;85.10;47.10;;;;;;;4.95;100.00;98767.16;5071779;28;20196;-73
2023/12/14 00:08:49;;;;;;;93.30;48.30;;;;;;;5.04;100.00;98766.13;5072166;28;20196;-75
2023/12/14 00:11:17;;;;;;;88.23;49.00;;;;;;;5.10;100.00;98760.13;5071572;28;20192;-74
2023/12/14 00:13:44;;;;;;;86.70;48.57;;;;;;;5.16;100.00;98763.84;5071657;28;20670;-74
2023/12/14 00:16:10;;;;;;;87.40;47.77;;;;;;;5.20;100.00;98775.66;5071350;28;20220;-73
2023/12/14 00:18:37;;;;;;;84.03;47.70;;;;;;;5.17;100.00;98783.91;5071162;28;20744;-74
2023/12/14 00:21:05;;;;;;;82.80;46.57;;;;;;;5.04;100.00;98776.66;5071290;28;20709;-75
2023/12/14 00:23:31;;;;;;;92.33;49.07;;;;;;;4.93;100.00;98763.91;5071494;28;20198;-74
2023/12/14 00:25:58;;;;;;;83.60;46.43;;;;;;;4.93;100.00;98769.16;5071487;28;20281;-74
2023/12/14 00:28:26;;;;;;;90.17;46.67;;;;;;;4.94;100.00;98765.53;5071721;28;20188;-75
2023/12/14 00:30:53;;;;;;;80.63;44.70;;;;;;;4.86;100.00;98773.50;5071600;28;20300;-75
2023/12/14 00:33:20;;;;;;;83.23;46.10;;;;;;;4.85;100.00;98785.03;5071630;28;20192;-75
2023/12/14 00:35:46;;;;;;;89.87;45.93;;;;;;;4.83;100.00;98787.00;5071297;28;20281;-75
2023/12/14 00:38:13;;;;;;;87.50;46.87;;;;;;;4.53;100.00;98745.81;5071324;28;20246;-75
2023/12/14 00:40:40;;;;;;;84.03;45.00;;;;;;;4.85;100.00;98786.81;5071488;28;20196;-75
2023/12/14 00:43:06;;;;;;;82.63;45.60;;;;;;;4.88;100.00;98782.03;5071497;28;20195;-75
2023/12/14 00:45:34;;;;;;;88.10;45.53;;;;;;;4.92;100.00;98788.59;5071341;28;20200;-75
2023/12/14 00:48:01;;;;;;;79.33;44.37;;;;;;;4.91;100.00;98792.19;5071077;28;20316;-75
2023/12/14 00:50:28;;;;;;;81.00;44.20;;;;;;;4.90;100.00;98785.31;5071506;28;20196;-77
2023/12/14 00:52:54;;;;;;;79.17;43.97;;;;;;;4.94;100.00;98791.03;5071141;28;20664;-75
2023/12/14 00:55:21;;;;;;;81.60;45.57;;;;;;;4.92;100.00;98799.13;5071584;28;20224;-76
2023/12/14 00:57:48;;;;;;;81.10;43.40;;;;;;;4.88;100.00;98797.84;5071426;28;20664;-76
2023/12/14 01:00:15;;;;;;;93.43;47.07;;;;;;;4.90;100.00;98773.97;5071538;28;20195;-77
2023/12/14 01:02:43;;;;;;;77.37;44.03;;;;;;;4.91;100.00;98773.78;5071390;28;20221;-76
2023/12/14 01:05:10;;;;;;;82.57;44.13;;;;;;;4.87;100.00;98759.34;5071366;28;20192;-74
2023/12/14 01:07:37;;;;;;;80.10;45.30;;;;;;;4.88;100.00;98754.91;5070872;28;20249;-73
2023/12/14 01:10:04;;;;;;;81.97;43.23;;;;;;;4.88;100.00;98745.22;5071395;28;20258;-76
2023/12/14 01:12:31;;;;;;;76.23;43.20;;;;;;;4.93;100.00;98737.59;5070673;28;20192;-73
2023/12/14 01:14:58;;;;;;;78.43;44.40;;;;;;;4.96;100.00;98731.97;5071111;28;20219;-77
2023/12/14 01:17:25;;;;;;;84.00;43.37;;;;;;;4.95;100.00;98734.78;5070782;28;20250;-75
2023/12/14 01:19:53;;;;;;;79.50;42.20;;;;;;;4.80;100.00;98737.41;5070805;28;20202;-74
2023/12/14 01:22:19;;;;;;;75.27;42.40;;;;;;;4.77;100.00;98743.00;5070884;28;20687;-78
2023/12/14 01:24:46;;;;;;;79.90;42.10;;;;;;;4.80;100.00;98739.19;5071115;28;20225;-77
2023/12/14 01:27:13;;;;;;;74.23;41.13;;;;;;;4.83;100.00;98728.31;5070675;28;20245;-77
2023/12/14 01:29:40;;;;;;;68.43;42.03;;;;;;;4.81;100.00;98732.94;5071172;28;20261;-76
2023/12/14 01:32:07;;;;;;;73.53;43.07;;;;;;;4.83;100.00;98742.28;5071135;28;20223;-75
2023/12/14 01:34:34;;;;;;;82.37;44.33;;;;;;;4.86;100.00;98739.28;5070464;28;20246;-77
2023/12/14 01:37:02;;;;;;;104.27;48.40;;;;;;;4.89;100.00;98725.78;5070115;28;20219;-75
2023/12/14 01:39:29;;;;;;;107.00;47.47;;;;;;;4.89;100.00;98735.50;5070586;28;20188;-74
2023/12/14 01:41:55;;;;;;;101.73;47.47;;;;;;;4.93;100.00;98742.84;5070318;28;20192;-74
2023/12/14 01:44:22;;;;;;;97.30;48.80;;;;;;;4.92;100.00;98730.72;5073322;28;20191;-76
2023/12/14 01:46:49;;;;;;;97.00;50.83;;;;;;;4.90;100.00;98743.22;5074326;28;20726;-75
2023/12/14 01:49:15;;;;;;;113.63;54.80;;;;;;;4.91;100.00;98731.69;5074011;28;20188;-75
2023/12/14 01:51:42;;;;;;;109.17;49.73;;;;;;;4.92;100.00;98748.28;5074664;28;20192;-75
2023/12/14 01:54:10;;;;;;;111.87;52.97;;;;;;;4.92;100.00;98727.25;5074596;28;20192;-75
2023/12/14 01:56:37;;;;;;;105.80;51.20;;;;;;;5.00;100.00;98738.53;5074960;28;20224;-75
2023/12/14 01:59:04;;;;;;;118.03;54.80;;;;;;;4.99;100.00;98750.03;5074357;28;20679;-74
2023/12/14 02:01:39;;;;;;;103.87;52.30;;;;;;;4.98;99.84;98751.03;5074246;28;20655;-74
2023/12/14 02:04:07;;;;;;;93.43;46.97;;;;;;;4.98;100.00;98729.16;5074784;28;20267;-75
2023/12/14 02:06:34;;;;;;;82.70;46.17;;;;;;;4.97;100.00;98733.63;5074364;28;20203;-74
2023/12/14 02:09:00;;;;;;;81.80;47.13;;;;;;;4.89;100.00;98738.94;5074159;28;20249;-75
2023/12/14 02:11:28;;;;;;;87.07;46.67;;;;;;;4.92;100.00;98750.94;5074084;28;20196;-75
2023/12/14 02:13:55;;;;;;;86.20;45.60;;;;;;;4.85;100.00;98740.31;5074446;28;20196;-74
2023/12/14 02:16:22;;;;;;;83.63;42.93;;;;;;;4.75;100.00;98731.81;5074425;28;20223;-73
2023/12/14 02:18:49;;;;;;;86.63;45.27;;;;;;;4.66;100.00;98730.25;5074122;28;20659;-74
2023/12/14 02:21:15;;;;;;;74.10;43.03;;;;;;;4.66;100.00;98735.53;5074487;28;20246;-74
2023/12/14 02:23:45;;;;;;;81.73;43.93;;;;;;;4.69;100.00;98732.56;5074081;28;20648;-73
2023/12/14 02:26:12;;;;;;;75.17;42.43;;;;;;;4.67;100.00;98725.84;5074227;28;20230;-72
2023/12/14 02:28:39;;;;;;;84.63;45.33;;;;;;;4.69;100.00;98729.91;5073564;28;20676;-73
2023/12/14 02:31:06;;;;;;;75.20;45.50;;;;;;;4.56;100.00;98734.97;5074413;28;20231;-73
2023/12/14 02:33:33;;;;;;;73.97;44.23;;;;;;;4.48;100.00;98714.00;5074042;28;20196;-73
2023/12/14 02:36:00;;;;;;;85.37;45.00;;;;;;;4.57;100.00;98736.59;5073930;28;20211;-73
2023/12/14 02:38:27;;;;;;;84.00;43.77;;;;;;;4.39;100.00;98728.19;5073584;28;20192;-74
2023/12/14 02:40:55;;;;;;;74.40;43.03;;;;;;;4.43;100.00;98729.47;5073362;28;20260;-73
2023/12/14 02:43:23;;;;;;;75.17;43.37;;;;;;;4.49;100.00;98715.63;5073201;28;20257;-73
2023/12/14 02:45:50;;;;;;;69.10;41.90;;;;;;;4.51;100.00;98732.06;5073693;28;20204;-73
2023/12/14 02:48:17;;;;;;;77.80;43.73;;;;;;;4.50;100.00;98734.84;5073422;28;20668;-73
2023/12/14 02:50:43;;;;;;;74.80;41.80;;;;;;;4.42;100.00;98735.72;5073717;28;20268;-73
2023/12/14 02:53:10;;;;;;;69.37;39.63;;;;;;;4.35;100.00;98737.44;5073862;28;20196;-73
2023/12/14 02:55:37;;;;;;;69.03;39.60;;;;;;;4.37;100.00;98734.63;5072519;28;20224;-74
2023/12/14 02:58:05;;;;;;;77.40;39.13;;;;;;;4.30;100.00;98729.22;5073333;28;20684;-74
2023/12/14 03:00:32;;;;;;;69.13;37.37;;;;;;;4.21;100.00;98725.03;5073502;28;20625;-74
2023/12/14 03:02:58;;;;;;;74.20;38.40;;;;;;;4.12;100.00;98735.75;5073031;28;20336;-74
2023/12/14 03:05:25;;;;;;;65.13;38.20;;;;;;;4.16;100.00;98743.13;5073039;28;20601;-73
2023/12/14 03:07:52;;;;;;;72.33;38.33;;;;;;;4.14;100.00;98733.78;5072789;28;20188;-75
2023/12/14 03:10:18;;;;;;;66.17;39.10;;;;;;;4.06;100.00;98718.91;5072928;28;20196;-75
2023/12/14 03:12:45;;;;;;;64.93;37.60;;;;;;;4.11;100.00;98731.50;5072463;28;20204;-74
2023/12/14 03:15:13;;;;;;;71.07;38.60;;;;;;;4.22;100.00;98716.16;5072870;28;20270;-76
2023/12/14 03:17:40;;;;;;;68.93;37.67;;;;;;;4.27;100.00;98734.84;5073203;28;20567;-76
2023/12/14 03:20:08;;;;;;;69.80;38.67;;;;;;;4.20;100.00;98728.66;5072967;28;20195;-76
2023/12/14 03:22:35;;;;;;;60.83;35.53;;;;;;;4.18;100.00;98738.53;5073071;28;20249;-75
2023/12/14 03:25:02;;;;;;;74.33;38.40;;;;;;;4.17;100.00;98725.56;5072846;28;20196;-74
2023/12/14 03:27:28;;;;;;;62.83;37.50;;;;;;;4.20;100.00;98733.06;5073017;28;20507;-74
2023/12/14 03:29:55;;;;;;;68.47;35.73;;;;;;;4.18;100.00;98730.66;5072625;28;20584;-74
2023/12/14 03:32:23;;;;;;;64.53;34.77;;;;;;;4.14;100.00;98729.34;5072789;28;20202;-73
2023/12/14 03:34:50;;;;;;;64.67;36.67;;;;;;;4.12;100.00;98727.88;5072272;28;20470;-74
2023/12/14 03:37:17;;;;;;;61.10;34.07;;;;;;;4.19;100.00;98720.94;5058511;28;20269;-75
2023/12/14 03:39:43;;;;;;;62.67;35.97;;;;;;;4.26;100.00;98727.97;5052489;28;20604;-75
2023/12/14 03:42:10;;;;;;;62.83;36.73;;;;;;;4.29;100.00;98735.47;5052414;28;20204;-75
2023/12/14 03:44:37;;;;;;;61.23;36.40;;;;;;;4.28;100.00;98733.84;5052273;28;20625;-74
2023/12/14 03:47:04;;;;;;;66.63;37.83;;;;;;;4.29;100.00;98742.56;5052208;28;20200;-75
2023/12/14 03:49:32;;;;;;;61.47;35.47;;;;;;;4.24;100.00;98722.06;5052584;28;20250;-75
2023/12/14 03:51:59;;;;;;;56.63;35.40;;;;;;;4.19;100.00;98715.69;5052098;28;20197;-75
2023/12/14 03:54:25;;;;;;;57.77;33.53;;;;;;;4.18;100.00;98730.66;5051748;28;20235;-76
2023/12/14 03:56:52;;;;;;;71.10;35.97;;;;;;;4.23;100.00;98723.06;5052126;28;20289;-75
2023/12/14 03:59:19;;;;;;;67.83;37.03;;;;;;;4.18;100.00;98728.03;5051788;28;20245;-75
2023/12/14 04:01:45;;;;;;;59.00;35.80;;;;;;;3.97;100.00;98691.03;5052551;28;20239;-74
2023/12/14 04:04:12;;;;;;;61.10;35.83;;;;;;;4.30;100.00;98729.22;5052369;28;20279;-74
2023/12/14 04:06:40;;;;;;;66.10;36.93;;;;;;;4.37;100.00;98705.72;5051785;28;20614;-74
2023/12/14 04:09:07;;;;;;;63.77;35.50;;;;;;;4.45;100.00;98716.16;5051681;28;20663;-75
2023/12/14 04:11:34;;;;;;;63.47;36.20;;;;;;;4.46;100.00;98713.34;5052053;28;20258;-75
2023/12/14 04:14:00;;;;;;;59.17;35.37;;;;;;;4.51;100.00;98708.38;5052129;28;20199;-75
2023/12/14 04:16:27;;;;;;;56.03;35.73;;;;;;;4.54;100.00;98705.38;5051901;28;20572;-75
2023/12/14 04:18:54;;;;;;;68.27;39.30;;;;;;;4.57;100.00;98714.72;5051359;28;20733;-75
2023/12/14 04:21:20;;;;;;;60.43;36.97;;;;;;;4.60;100.00;98725.72;5052088;28;20226;-74
2023/12/14 04:23:48;;;;;;;63.47;39.07;;;;;;;4.55;100.00;98722.81;5051680;28;20632;-73
2023/12/14 04:26:15;;;;;;;64.23;37.57;;;;;;;4.59;100.00;98713.59;5051548;28;20647;-74
2023/12/14 04:28:43;;;;;;;63.70;35.73;;;;;;;4.62;100.00;98713.19;5051321;28;20208;-72
2023/12/14 04:31:11;;;;;;;62.97;34.97;;;;;;;4.64;100.00;98721.75;5051467;28;20228;-75
2023/12/14 04:33:37;;;;;;;57.77;34.70;;;;;;;4.60;100.00;98728.34;5051526;28;20279;-75
2023/12/14 04:36:05;;;;;;;56.20;34.77;;;;;;;4.60;100.00;98730.16;5055250;28;20269;-74
2023/12/14 04:38:31;;;;;;;53.73;31.70;;;;;;;4.55;100.00;98722.81;5071258;28;20671;-72
2023/12/14 04:40:59;;;;;;;50.97;30.40;;;;;;;4.62;100.00;98722.94;5071333;28;20200;-74
2023/12/14 04:43:29;;;;;;;45.97;31.00;;;;;;;4.67;100.00;98718.78;5071249;28;20265;-73
2023/12/14 04:45:56;;;;;;;51.97;30.90;;;;;;;4.70;100.00;98726.28;5070975;28;20192;-73
2023/12/14 04:48:22;;;;;;;50.10;30.03;;;;;;;4.77;100.00;98736.91;5071417;28;20676;-73
2023/12/14 04:50:49;;;;;;;46.07;29.03;;;;;;;4.78;100.00;98728.06;5071606;28;20199;-73
2023/12/14 04:53:16;;;;;;;48.57;29.93;;;;;;;4.78;100.00;98707.81;5070929;28;20692;-73
2023/12/14 04:55:43;;;;;;;53.03;31.50;;;;;;;4.65;100.00;98712.84;5071226;28;20290;-73
2023/12/14 04:58:11;;;;;;;49.03;30.00;;;;;;;4.62;100.00;98697.44;5071012;28;20784;-72
2023/12/14 05:00:37;;;;;;;48.10;30.63;;;;;;;4.59;99.73;98708.31;5071232;28;20199;-73
2023/12/14 05:03:04;;;;;;;51.63;30.93;;;;;;;4.50;100.00;98712.00;5071182;28;20253;-73
2023/12/14 05:05:31;;;;;;;48.90;32.73;;;;;;;4.35;100.00;98708.50;5070726;28;20199;-74
2023/12/14 05:07:58;;;;;;;52.73;32.67;;;;;;;4.21;100.00;98714.50;5071413;28;20195;-73
2023/12/14 05:10:24;;;;;;;53.73;32.13;;;;;;;4.20;100.00;98715.50;5071041;28;20253;-73
2023/12/14 05:12:51;;;;;;;54.83;31.30;;;;;;;4.22;100.00;98716.16;5071237;28;20627;-72
2023/12/14 05:15:19;;;;;;;71.57;35.60;;;;;;;4.23;100.00;98728.31;5070773;28;21007;-72
2023/12/14 05:17:46;;;;;;;68.23;34.37;;;;;;;4.12;100.00;98712.09;5070537;28;20485;-73
2023/12/14 05:20:13;;;;;;;49.43;33.23;;;;;;;4.15;100.00;98709.13;5075083;28;20663;-73
2023/12/14 05:22:40;;;;;;;54.63;33.37;;;;;;;4.12;100.00;98705.06;5074671;28;20853;-73
2023/12/14 05:25:07;;;;;;;55.73;32.37;;;;;;;4.13;100.00;98700.63;5074992;28;20195;-74
2023/12/14 05:27:33;;;;;;;56.47;33.87;;;;;;;4.18;100.00;98714.06;5074722;28;20336;-74
2023/12/14 05:30:00;;;;;;;58.80;35.77;;;;;;;4.27;100.00;98705.13;5074511;28;20689;-75
2023/12/14 05:32:28;;;;;;;63.63;36.20;;;;;;;4.21;100.00;98714.50;5074952;28;20189;-74
2023/12/14 05:34:55;;;;;;;64.37;35.70;;;;;;;4.18;100.00;98722.78;5075562;28;20188;-74
2023/12/14 05:37:22;;;;;;;76.67;42.30;;;;;;;4.02;100.00;98738.63;5074473;28;20272;-74
2023/12/14 05:39:48;;;;;;;65.27;38.80;;;;;;;4.08;100.00;98734.47;5075049;28;20252;-73
2023/12/14 05:42:17;;;;;;;71.87;41.17;;;;;;;4.10;100.00;98727.25;5075016;28;20265;-73
2023/12/14 05:44:44;;;;;;;61.67;37.90;;;;;;;4.12;100.00;98735.75;5074743;28;20192;-75
2023/12/14 05:47:11;;;;;;;67.80;37.43;;;;;;;4.07;100.00;98733.66;5074517;28;20278;-75
2023/12/14 05:49:42;;;;;;;67.87;38.17;;;;;;;4.01;100.00;98729.09;5070808;28;20663;-73
2023/12/14 05:52:08;;;;;;;69.63;39.23;;;;;;;3.86;100.00;98730.00;5073728;28;20187;-72
2023/12/14 05:54:37;;;;;;;77.53;41.23;;;;;;;3.72;100.00;98731.53;5073391;28;20249;-71
2023/12/14 05:57:04;;;;;;;66.23;39.10;;;;;;;3.73;100.00;98740.25;5071255;28;20224;-72
2023/12/14 05:59:31;;;;;;;74.43;43.53;;;;;;;3.76;100.00;98740.72;5079629;28;20252;-75
2023/12/14 06:01:58;;;;;;;66.77;39.97;;;;;;;3.85;100.00;98733.63;5091498;28;20191;-74
2023/12/14 06:04:25;;;;;;;69.07;39.83;;;;;;;3.91;100.00;98736.38;5090837;28;20194;-73
2023/12/14 06:06:53;;;;;;;69.60;40.63;;;;;;;3.95;100.00;98745.56;5090235;28;20551;-77
2023/12/14 06:09:24;;;;;;;68.97;41.03;;;;;;;3.95;100.00;98745.56;5088646;28;20199;-75
2023/12/14 06:11:51;;;;;;;72.23;41.87;;;;;;;3.83;100.00;98720.66;5089842;28;20667;-74
2023/12/14 06:14:18;;;;;;;72.30;43.93;;;;;;;3.98;100.00;98739.97;5089243;28;20273;-75
2023/12/14 06:16:45;;;;;;;85.13;46.73;;;;;;;4.04;100.00;98744.50;5077345;28;20639;-77
2023/12/14 06:19:12;;;;;;;82.03;45.33;;;;;;;4.05;100.00;98756.66;5070447;28;20203;-75
2023/12/14 06:21:38;;;;;;;92.50;49.07;;;;;;;4.12;100.00;98731.31;5071666;28;20446;-75
2023/12/14 06:24:07;;;;;;;79.63;48.77;;;;;;;4.26;100.00;98738.47;5071279;28;20784;-75
2023/12/14 06:26:34;;;;;;;92.87;49.63;;;;;;;4.39;100.00;98738.72;5078516;28;20199;-74
2023/12/14 06:29:00;;;;;;;102.03;51.87;;;;;;;4.49;100.00;98738.44;5071422;28;20195;-72
2023/12/14 06:31:27;;;;;;;106.63;59.03;;;;;;;4.55;100.00;98730.72;5068706;28;20227;-71
2023/12/14 06:33:54;;;;;;;130.23;67.40;;;;;;;4.64;100.00;98741.97;5071046;28;20859;-70
2023/12/14 06:36:21;;;;;;;98.50;58.50;;;;;;;4.71;100.00;98753.41;5071244;28;20196;-73
2023/12/14 06:38:47;;;;;;;113.07;57.73;;;;;;;4.75;100.00;98752.88;5073815;28;20249;-73
2023/12/14 06:41:23;;;;;;;87.23;49.83;;;;;;;4.87;100.00;98756.72;5072644;28;20203;-73
2023/12/14 06:43:50;;;;;;;87.33;45.60;;;;;;;4.91;100.00;98751.94;5075653;28;20191;-74
2023/12/14 06:46:17;;;;;;;88.50;44.03;;;;;;;4.95;100.00;98754.00;5072383;28;20587;-74
2023/12/14 06:48:44;;;;;;;79.20;42.43;;;;;;;5.19;100.00;98747.72;5069491;28;20191;-66
2023/12/14 06:51:11;;;;;;;72.20;40.95;;;;;;;5.48;100.00;98753.78;5070469;28;20437;-64
2023/12/14 06:53:41;;;;;;;60.33;33.73;;;;;;;5.51;100.00;98753.44;5069026;28;20285;-64
2023/12/14 06:56:10;;;;;;;47.20;30.50;;;;;;;5.55;100.00;98754.72;5070675;28;20222;-64
2023/12/14 06:58:39;;;;;;;57.60;30.23;;;;;;;5.52;100.00;98764.78;5071557;28;20246;-66
2023/12/14 07:01:06;;;;;;;50.90;28.53;;;;;;;5.67;100.00;98744.50;5069218;28;20208;-67
2023/12/14 07:03:33;;;;;;;36.30;23.53;;;;;;;5.96;100.00;98741.06;5071173;28;20196;-67
2023/12/14 07:05:59;;;;;;;51.03;28.03;;;;;;;6.33;100.00;98735.59;5070457;28;20255;-65
2023/12/14 07:08:26;;;;;;;44.33;27.40;;;;;;;6.18;98.07;98734.81;5069192;28;20265;-64
2023/12/14 07:10:53;;;;;;;41.97;26.80;;;;;;;6.04;97.67;98746.22;5068048;28;20199;-65
2023/12/14 07:13:20;;;;;;;43.97;27.63;;;;;;;5.93;96.44;98746.69;5069590;28;20748;-64
2023/12/14 07:15:49;;;;;;;51.73;26.87;;;;;;;5.90;97.58;98739.16;5067380;28;20187;-64
2023/12/14 07:18:15;;;;;;;46.17;26.50;;;;;;;5.91;97.99;98741.63;5068141;28;20216;-65
2023/12/14 07:20:42;;;;;;;48.87;27.37;;;;;;;6.06;99.02;98755.59;5068884;28;20195;-65
2023/12/14 07:23:09;;;;;;;43.23;27.60;;;;;;;6.13;97.44;98750.38;5070211;28;20207;-64
2023/12/14 07:25:35;;;;;;;46.83;26.43;;;;;;;6.15;96.96;98762.38;5072220;28;20668;-65
2023/12/14 07:28:02;;;;;;;48.13;26.20;;;;;;;6.22;96.71;98762.44;5069347;28;20258;-65
2023/12/14 07:30:29;;;;;;;37.30;25.67;;;;;;;6.18;96.30;98758.56;5070230;28;20257;-64
2023/12/14 07:32:57;;;;;;;51.63;27.50;;;;;;;6.20;96.83;98767.91;5068992;28;20196;-65
2023/12/14 07:35:24;;;;;;;41.37;27.73;;;;;;;6.27;96.33;98765.34;5068027;28;20194;-65
2023/12/14 07:37:51;;;;;;;43.43;28.87;;;;;;;6.42;96.73;98758.19;5070100;28;20635;-65
2023/12/14 07:40:18;;;;;;;47.63;26.93;;;;;;;6.56;96.39;98771.34;5074294;28;20231;-65
2023/12/14 07:42:45;;;;;;;48.57;28.00;;;;;;;6.63;96.44;98764.31;5066909;28;20184;-65
2023/12/14 07:45:11;;;;;;;50.30;27.13;;;;;;;6.69;95.19;98752.19;5069512;28;20273;-64
2023/12/14 07:47:38;;;;;;;45.10;27.87;;;;;;;6.74;94.82;98762.97;5069494;28;20197;-65
2023/12/14 07:50:07;;;;;;;46.77;27.63;;;;;;;6.69;93.89;98775.94;5069043;28;20191;-65
2023/12/14 07:52:34;;;;;;;53.40;29.43;;;;;;;6.78;94.84;98780.06;5067729;28;20203;-65
2023/12/14 07:55:01;;;;;;;47.90;28.10;;;;;;;6.80;93.58;98778.03;5065721;28;20198;-65
2023/12/14 07:57:28;;;;;;;45.47;28.57;;;;;;;6.86;93.32;98777.31;5068661;28;20782;-65
2023/12/14 07:59:55;;;;;;;52.03;30.03;;;;;;;6.84;93.10;98781.94;5066843;28;20204;-65
2023/12/14 08:02:21;;;;;;;41.30;27.50;;;;;;;6.76;92.31;98803.19;5071832;28;20192;-66
2023/12/14 08:04:48;;;;;;;49.40;28.70;;;;;;;6.68;93.34;98800.66;5069543;28;20195;-65
2023/12/14 08:07:16;;;;;;;45.83;30.63;;;;;;;6.68;94.16;98790.09;5067822;28;20434;-65
2023/12/14 08:09:43;;;;;;;45.07;27.10;;;;;;;6.63;94.01;98776.66;5067822;28;20199;-65
2023/12/14 08:12:09;;;;;;;53.90;30.50;;;;;;;6.68;94.37;98766.38;5068859;28;20754;-65
2023/12/14 08:14:37;;;;;;;50.60;29.37;;;;;;;6.73;94.50;98777.19;5070570;28;20249;-64
2023/12/14 08:17:04;;;;;;;65.90;32.30;;;;;;;6.84;94.75;98789.84;5068426;28;20222;-65
2023/12/14 08:19:31;;;;;;;55.00;33.07;;;;;;;6.85;93.47;98770.38;5064717;28;20186;-65
2023/12/14 08:21:58;;;;;;;65.23;29.67;;;;;;;6.82;94.79;98773.41;5080890;28;20196;-65
2023/12/14 08:24:26;;;;;;;58.53;29.77;;;;;;;6.78;94.62;98774.78;5069349;28;20199;-64
2023/12/14 08:26:53;;;;;;;49.63;29.27;;;;;;;6.82;94.77;98770.78;5068881;28;20608;-64
2023/12/14 08:29:20;;;;;;;52.07;30.67;;;;;;;6.97;95.95;98768.84;5068263;28;20223;-66
2023/12/14 08:31:46;;;;;;;44.07;28.90;;;;;;;6.99;94.16;98777.41;5069265;28;20695;-66
2023/12/14 08:34:13;;;;;;;64.67;30.67;;;;;;;7.09;95.07;98767.31;5068168;28;20188;-65
2023/12/14 08:36:40;;;;;;;50.57;28.83;;;;;;;7.17;94.93;98769.81;5067162;28;20713;-65
2023/12/14 08:39:06;;;;;;;46.60;29.40;;;;;;;7.23;94.19;98774.34;5067824;28;20273;-65
2023/12/14 08:41:35;;;;;;;49.23;28.43;;;;;;;7.42;94.17;98773.66;5067601;28;20622;-65
2023/12/14 08:44:01;;;;;;;40.50;26.17;;;;;;;7.63;93.24;98770.97;5067736;28;20274;-65
2023/12/14 08:46:28;;;;;;;40.57;26.67;;;;;;;7.85;91.59;98791.00;5067104;28;20242;-65
2023/12/14 08:48:55;;;;;;;38.10;26.00;;;;;;;7.85;90.46;98793.66;5063979;28;20603;-66
2023/12/14 08:51:24;;;;;;;41.57;26.33;;;;;;;7.92;90.22;98786.56;5063119;28;20241;-66
2023/12/14 08:53:51;;;;;;;40.63;25.57;;;;;;;8.01;91.08;98795.97;5062725;28;20687;-66
2023/12/14 08:56:17;;;;;;;60.33;26.90;;;;;;;7.93;90.00;98783.69;5066897;28;20257;-65
2023/12/14 08:58:46;;;;;;;51.40;26.63;;;;;;;8.00;90.07;98784.56;5067741;28;20219;-66
2023/12/14 09:01:12;;;;;;;49.00;27.47;;;;;;;8.22;91.68;98787.94;5068181;28;20574;-66
2023/12/14 09:03:39;;;;;;;43.80;24.57;;;;;;;8.41;89.53;98792.50;5068416;28;20190;-67
2023/12/14 09:06:06;;;;;;;39.53;23.97;;;;;;;8.62;88.99;98800.28;5064922;28;20195;-66
2023/12/14 09:08:33;;;;;;;52.03;25.33;;;;;;;8.71;87.08;98814.94;5065456;28;20211;-66
2023/12/14 09:10:59;;;;;;;44.70;23.67;;;;;;;8.69;87.26;98790.50;5068577;28;20240;-65
2023/12/14 09:13:26;;;;;;;48.40;24.40;;;;;;;8.65;86.75;98773.38;5069332;28;20183;-64
2023/12/14 09:15:54;;;;;;;66.60;26.53;;;;;;;8.80;87.76;98774.03;5068654;28;20188;-65
2023/12/14 09:18:22;;;;;;;48.77;25.27;;;;;;;8.90;86.92;98761.22;5066958;28;20587;-65
2023/12/14 09:20:49;;;;;;;80.53;25.77;;;;;;;8.98;86.46;98763.63;5067417;28;20227;-66
2023/12/14 09:23:16;;;;;;;28.43;21.57;;;;;;;9.10;86.63;98762.84;5066900;28;20274;-66
2023/12/14 09:25:43;;;;;;;48.97;21.77;;;;;;;9.36;85.49;98751.41;5067078;28;20202;-66
2023/12/14 09:28:10;;;;;;;40.47;21.53;;;;;;;9.47;84.37;98745.47;5066850;28;20203;-66
2023/12/14 09:30:36;;;;;;;34.00;21.10;;;;;;;9.68;83.33;98761.13;5066639;28;20216;-66
2023/12/14 09:33:05;;;;;;;32.10;21.03;;;;;;;9.70;83.12;98746.66;5066929;28;20655;-65
2023/12/14 09:35:32;;;;;;;36.27;21.10;;;;;;;9.80;82.88;98738.25;5068152;28;20184;-65
2023/12/14 09:37:59;;;;;;;48.60;21.27;;;;;;;10.00;82.25;98744.28;5066851;28;20241;-65
2023/12/14 09:40:26;;;;;;;32.27;22.13;;;;;;;10.10;82.37;98734.88;5066428;28;20208;-65
2023/12/14 09:42:53;;;;;;;39.07;23.30;;;;;;;10.24;81.53;98735.63;5071003;28;20515;-66
2023/12/14 09:45:24;;;;;;;35.20;22.57;;;;;;;10.29;79.73;98733.16;5068101;28;20196;-65
2023/12/14 09:47:52;;;;;;;37.97;24.13;;;;;;;10.29;81.20;98735.78;5068128;28;20192;-65
2023/12/14 09:50:21;;;;;;;38.30;24.83;;;;;;;10.41;80.32;98731.44;5067132;28;20712;-65
2023/12/14 09:52:49;;;;;;;22.70;17.53;;;;;;;10.49;79.11;98733.84;5067862;28;20259;-65
2023/12/14 09:55:15;;;;;;;29.10;18.73;;;;;;;10.51;79.91;98726.50;5068288;28;20275;-66
2023/12/14 09:57:42;;;;;;;38.37;19.20;;;;;;;10.63;78.93;98724.78;5068153;28;20278;-65
2023/12/14 10:00:13;;;;;;;31.90;19.00;;;;;;;10.79;78.10;98727.72;5068306;28;20265;-64
2023/12/14 10:02:40;;;;;;;31.73;19.07;;;;;;;10.92;77.17;98737.44;5068332;28;20449;-66
2023/12/14 10:05:11;;;;;;;27.60;19.43;;;;;;;11.00;78.07;98731.84;5068882;28;20200;-67
2023/12/14 10:07:43;;;;;;;29.43;19.43;;;;;;;11.14;76.96;98732.56;5071414;28;20199;-66
2023/12/14 10:10:14;;;;;;;34.30;19.77;;;;;;;11.38;76.74;98731.69;5070178;28;20188;-66
2023/12/14 10:12:52;;;;;;;30.97;19.67;;;;;;;11.59;75.53;98721.47;5070564;28;20620;-66
2023/12/14 10:15:19;;;;;;;27.40;17.73;;;;;;;11.78;74.48;98725.78;5070279;28;20697;-66
2023/12/14 10:17:52;;;;;;;34.07;19.70;;;;;;;11.94;73.22;98727.84;5071066;28;20274;-65
2023/12/14 10:20:21;;;;;;;34.77;19.07;;;;;;;12.01;73.14;98717.91;5071057;28;20178;-65
2023/12/14 10:22:50;;;;;;;35.00;21.43;;;;;;;12.14;73.31;98711.63;5071466;28;20200;-65
2023/12/14 10:25:19;;;;;;;25.50;20.30;;;;;;;12.29;72.89;98702.19;5072114;28;20190;-66
2023/12/14 10:27:47;;;;;;;30.23;18.17;;;;;;;12.36;71.61;98702.91;5071023;28;20229;-66
2023/12/14 10:30:15;;;;;;;31.50;17.73;;;;;;;12.31;71.57;98702.78;5070844;28;20202;-65
2023/12/14 10:32:42;;;;;;;30.20;18.50;;;;;;;12.25;71.87;98701.03;5070827;28;20662;-66
2023/12/14 10:35:09;;;;;;;28.90;17.50;;;;;;;12.63;80.18;98653.56;5073081;28;20669;-73
2023/12/14 10:37:39;;;;;;;28.80;18.33;;;;;;;12.68;73.66;98685.66;5071638;28;20221;-73
2023/12/14 10:40:10;;;;;;;23.93;17.93;;;;;;;12.76;70.50;98689.81;5070561;28;20266;-71
2023/12/14 10:42:37;;;;;;;27.40;17.20;;;;;;;12.73;71.75;98691.09;5072404;28;20279;-71
2023/12/14 10:45:06;;;;;;;34.43;17.77;;;;;;;12.68;70.98;98690.97;5070279;28;20335;-72
2023/12/14 10:47:34;;;;;;;34.40;17.87;;;;;;;12.48;72.45;98685.13;5070582;28;20202;-72
2023/12/14 10:50:02;;;;;;;41.57;18.70;;;;;;;12.31;72.86;98684.16;5060887;28;20285;-72
2023/12/14 10:52:33;;;;;;;38.83;18.67;;;;;;;12.09;73.47;98672.34;5069889;28;20228;-72
2023/12/14 10:55:05;;;;;;;29.97;19.67;;;;;;;12.07;74.72;98698.41;5071459;28;20238;-65
2023/12/14 10:57:35;;;;;;;42.33;23.50;;;;;;;11.97;74.98;98687.47;5070313;28;20646;-66
2023/12/14 11:00:02;;;;;;;45.70;24.23;;;;;;;11.78;76.41;98675.25;5070449;28;20279;-64
2023/12/14 11:02:31;;;;;;;50.50;35.13;;;;;;;11.86;76.44;98674.94;5069580;28;20194;-65
2023/12/14 11:04:59;;;;;;;48.97;33.60;;;;;;;11.88;76.00;98678.16;5070872;28;20637;-65
2023/12/14 11:07:48;;;;;;;34.70;24.47;;;;;;;11.64;76.59;98671.09;5071143;28;20286;-65
2023/12/14 11:10:16;;;;;;;70.17;45.00;;;;;;;11.66;77.24;98673.53;5070695;28;20205;-65
2023/12/14 11:12:57;;;;;;;39.70;27.63;;;;;;;11.46;77.71;98665.75;5071866;28;20194;-64
2023/12/14 11:15:24;;;;;;;43.20;22.20;;;;;;;11.40;78.23;98657.84;5070694;28;20277;-65
2023/12/14 11:18:26;;;;;;;48.33;28.30;;;;;;;11.27;78.85;98656.13;5051458;28;20191;-66
2023/12/14 11:20:55;;;;;;;45.73;30.60;;;;;;;11.23;79.95;98656.81;5053487;28;20691;-65